Time;durP1;ratioP1;P1;durP2;ratioP2;P2;SDS_P1;SDS_P2;PMS_P1;PMS_P2;Temp;Humidity;BMP_temperature;BMP_pressure;BME280_temperature;BME280_humidity;BME280_pressure;Samples;Min_cycle;Max_cycle;Signal;HPM_P1;HPM_P2
2022/08/23 09:57:46;;;;;;;4.33;2.90;;;;;;;22.53;100.00;101524.69;5078231;27;20573;-74
2022/08/23 10:00:16;;;;;;;6.00;2.97;;;;;;;23.39;100.00;101622.13;5083436;28;20536;-74
2022/08/23 10:02:42;;;;;;;4.77;2.97;;;;;;;22.20;100.00;101389.19;5081743;28;21285;-75
2022/08/23 10:05:19;;;;;;;3.50;2.60;;;;;;;23.69;100.00;101616.78;5070761;28;20427;-74
2022/08/23 10:07:59;;;;;;;5.10;2.40;;;;;;;22.86;100.00;101466.13;5085549;28;20542;-73
2022/08/23 10:10:42;;;;;;;4.00;2.70;;;;;;;22.88;100.00;101485.00;5079080;28;20430;-74
2022/08/23 10:13:08;;;;;;;5.57;2.17;;;;;;;22.59;100.00;101457.22;5086983;28;20827;-74
2022/08/23 10:15:58;;;;;;;3.23;2.43;;;;;;;23.73;100.00;101610.81;5076742;28;20473;-75
2022/08/23 10:18:35;;;;;;;3.33;2.00;;;;;;;23.73;100.00;101619.84;5075597;28;20457;-75
2022/08/23 10:21:47;;;;;;;2.83;2.10;;;;;;;23.44;100.00;101595.59;5066947;28;20439;-75
2022/08/23 10:24:25;;;;;;;2.50;2.30;;;;;;;23.63;100.00;101617.03;5078860;28;20825;-75
2022/08/23 10:30:21;;;;;;;3.20;1.97;;;;;;;23.83;100.00;101589.72;5085291;28;20809;-75
2022/08/23 10:32:53;;;;;;;3.63;2.03;;;;;;;23.94;100.00;101601.56;5069804;28;21157;-77
2022/08/23 10:35:30;;;;;;;2.87;2.33;;;;;;;23.84;100.00;101587.84;5088575;28;20457;-75
2022/08/23 10:38:08;;;;;;;3.83;2.30;;;;;;;24.08;100.00;101602.69;5087713;28;20416;-75
2022/08/23 10:41:06;;;;;;;2.77;2.10;;;;;;;24.16;100.00;101604.06;5083283;28;20432;-74
2022/08/23 10:43:53;;;;;;;6.60;2.47;;;;;;;24.04;100.00;101601.59;5085618;28;20443;-75
2022/08/23 10:46:21;;;;;;;2.70;2.00;;;;;;;23.91;100.00;101605.66;5089097;28;20542;-75
2022/08/23 10:48:56;;;;;;;4.63;1.90;;;;;;;23.80;100.00;101606.72;5088699;28;20420;-75
2022/08/23 10:51:24;;;;;;;3.63;1.60;;;;;;;24.08;100.00;101604.59;5082874;28;20544;-74
2022/08/23 10:54:22;;;;;;;4.50;2.33;;;;;;;24.30;100.00;101596.13;5087491;28;20873;-76
2022/08/23 10:56:50;;;;;;;3.30;2.37;;;;;;;24.54;100.00;101605.50;5072388;28;21363;-75
2022/08/23 10:59:24;;;;;;;6.13;2.53;;;;;;;24.66;100.00;101597.00;5081743;28;20476;-74
2022/08/23 11:01:56;;;;;;;3.97;2.17;;;;;;;24.55;100.00;101555.03;5090512;28;20506;-75
2022/08/23 11:04:53;;;;;;;2.53;1.80;;;;;;;24.46;100.00;101544.91;5065308;28;21798;-71
2022/08/23 11:07:33;;;;;;;3.97;1.90;;;;;;;25.12;100.00;101598.88;5075785;28;20439;-73
2022/08/23 11:10:04;;;;;;;3.47;2.20;;;;;;;25.03;100.00;101599.44;5069795;28;20436;-71
2022/08/23 11:12:34;;;;;;;8.10;1.90;;;;;;;25.21;100.00;101597.22;5069821;28;20459;-71
2022/08/23 11:15:42;;;;;;;2.63;1.83;;;;;;;25.05;100.00;101596.38;5069719;28;20444;-70
2022/08/23 11:18:27;;;;;;;5.20;2.23;;;;;;;25.04;100.00;101581.84;5050472;28;20978;-73
2022/08/23 11:21:00;;;;;;;4.20;2.43;;;;;;;24.91;100.00;101537.69;5072986;28;20436;-72
2022/08/23 11:23:42;;;;;;;2.50;1.70;;;;;;;25.05;100.00;101538.75;5073910;28;20562;-72
2022/08/23 11:26:35;;;;;;;4.27;1.80;;;;;;;25.28;100.00;101596.91;5070289;28;20447;-70
2022/08/23 11:29:06;;;;;;;6.03;1.90;;;;;;;25.40;100.00;101587.28;5075588;28;20430;-71
2022/08/23 11:31:41;;;;;;;3.90;1.60;;;;;;;25.38;100.00;101591.41;5062590;28;20959;-71
2022/08/23 11:34:18;;;;;;;3.73;1.60;;;;;;;25.24;100.00;101597.47;5055934;28;20567;-72
2022/08/23 11:37:25;;;;;;;3.53;1.80;;;;;;;25.16;100.00;101591.72;5054084;28;20448;-70
2022/08/23 11:39:56;;;;;;;4.03;2.00;;;;;;;25.17;100.00;101571.44;5075269;28;20491;-71
2022/08/23 11:42:25;;;;;;;6.20;2.00;;;;;;;25.27;100.00;101590.59;5047756;28;20871;-72
2022/08/23 11:44:52;;;;;;;3.67;2.00;;;;;;;25.37;100.00;101567.78;5061496;28;20458;-72
2022/08/23 11:47:27;;;;;;;2.90;1.87;;;;;;;25.49;100.00;101579.28;5062886;28;20479;-72
2022/08/23 11:50:13;;;;;;;5.23;1.80;;;;;;;25.64;100.00;101594.88;5046958;28;20428;-73
2022/08/23 11:52:51;;;;;;;3.03;1.80;;;;;;;25.68;100.00;101588.50;5066838;28;20490;-73
2022/08/23 11:55:27;;;;;;;3.77;2.00;;;;;;;25.76;100.00;101583.53;5059478;28;20447;-73
2022/08/23 11:57:53;;;;;;;5.20;2.07;;;;;;;25.73;100.00;101587.69;5053762;28;20444;-73
2022/08/23 12:00:20;;;;;;;3.83;1.50;;;;;;;25.78;100.00;101587.66;5062596;28;20442;-73
2022/08/23 12:02:48;;;;;;;7.33;2.80;;;;;;;25.99;100.00;101582.88;5049900;28;20199;-71
2022/08/23 12:05:19;;;;;;;3.80;1.90;;;;;;;26.12;100.00;101585.00;5051677;28;20598;-73
2022/08/23 12:08:12;;;;;;;4.30;2.10;;;;;;;26.12;100.00;101548.41;5044848;28;21698;-74
2022/08/23 12:10:40;;;;;;;3.10;1.60;;;;;;;26.23;100.00;101573.91;5036297;28;20463;-72
2022/08/23 12:13:24;;;;;;;4.23;2.23;;;;;;;26.21;100.00;101576.97;5062725;28;20461;-71
2022/08/23 12:16:17;;;;;;;3.60;1.70;;;;;;;26.35;100.00;101571.63;5055426;28;20452;-71
2022/08/23 12:18:45;;;;;;;1.87;1.50;;;;;;;26.38;100.00;101582.88;5064137;28;20433;-72
2022/08/23 12:21:23;;;;;;;5.00;1.73;;;;;;;26.48;100.00;101578.41;5044938;28;20983;-73
2022/08/23 12:23:52;;;;;;;3.03;1.60;;;;;;;26.84;100.00;101573.41;5057575;28;20501;-71
2022/08/23 12:26:25;;;;;;;3.00;1.60;;;;;;;26.71;100.00;101571.34;5056132;28;21457;-73
2022/08/23 12:29:26;;;;;;;3.07;1.80;;;;;;;27.01;100.00;101570.22;5061059;28;20495;-73
2022/08/23 12:32:10;;;;;;;3.77;1.70;;;;;;;26.93;100.00;101570.84;5057464;28;26794;-71
2022/08/23 12:34:38;;;;;;;3.60;1.83;;;;;;;26.83;100.00;101569.84;5060734;28;20425;-72
2022/08/23 12:37:27;;;;;;;3.10;1.80;;;;;;;26.95;100.00;101582.41;5064243;28;20500;-73
2022/08/23 12:39:56;;;;;;;3.47;2.20;;;;;;;26.73;100.00;101569.13;5058970;28;20881;-72
2022/08/23 12:42:30;;;;;;;3.00;1.60;;;;;;;26.71;100.00;101569.41;5048634;28;20978;-74
2022/08/23 12:45:13;;;;;;;2.53;1.57;;;;;;;26.34;100.00;101495.75;5056398;28;21219;-73
2022/08/23 12:47:42;;;;;;;2.90;1.50;;;;;;;26.93;100.00;101570.84;5043914;28;20434;-73
2022/08/23 12:50:13;;;;;;;1.80;1.43;;;;;;;26.93;100.00;101565.34;5055915;28;20525;-73
2022/08/23 12:52:39;;;;;;;2.33;1.40;;;;;;;26.96;100.00;101567.50;5062363;28;20453;-72
2022/08/23 12:55:17;;;;;;;2.23;1.73;;;;;;;27.16;100.00;101561.81;5065747;28;20437;-73
2022/08/23 12:57:53;;;;;;;3.57;2.13;;;;;;;27.23;100.00;101565.03;5061640;28;20806;-73
2022/08/23 13:00:34;;;;;;;2.87;1.73;;;;;;;27.01;100.00;101517.91;5064993;28;20521;-72
2022/08/23 13:03:16;;;;;;;1.87;1.67;;;;;;;27.62;100.00;101569.50;5054079;28;20838;-71
2022/08/23 13:06:07;;;;;;;5.70;2.00;;;;;;;27.62;100.00;101565.91;5058197;28;20912;-71
2022/08/23 13:08:48;;;;;;;2.57;1.60;;;;;;;27.32;100.00;101518.38;5053056;28;20764;-71
2022/08/23 13:11:19;;;;;;;1.93;1.30;;;;;;;27.69;100.00;101561.69;5069840;28;20486;-71
2022/08/23 13:13:45;;;;;;;3.03;1.40;;;;;;;27.79;100.00;101555.25;5063063;28;20490;-70
2022/08/23 13:16:31;;;;;;;3.87;1.60;;;;;;;27.91;100.00;101557.53;5064714;28;20956;-70
2022/08/23 13:19:11;;;;;;;3.10;1.97;;;;;;;27.99;100.00;101556.88;5062161;28;20213;-74
2022/08/23 13:21:37;;;;;;;2.40;1.80;;;;;;;27.92;100.00;101509.59;5052921;28;20452;-73
2022/08/23 13:24:41;;;;;;;4.67;1.87;;;;;;;28.49;100.00;101565.47;5059575;28;20432;-72
2022/08/23 13:27:14;;;;;;;3.00;1.60;;;;;;;28.32;100.00;101566.03;5053360;28;20182;-72
2022/08/23 13:29:50;;;;;;;3.00;2.07;;;;;;;28.11;100.00;101557.22;5055423;28;20441;-71
2022/08/23 13:32:30;;;;;;;3.13;1.40;;;;;;;28.06;100.00;101564.75;5053035;28;20468;-70
2022/08/23 13:35:26;;;;;;;1.53;1.33;;;;;;;27.82;100.00;101564.84;5056440;28;20472;-70
2022/08/23 13:38:14;;;;;;;2.80;1.40;;;;;;;27.69;100.00;101569.97;5061740;28;20475;-70
2022/08/23 13:40:55;;;;;;;2.03;1.50;;;;;;;27.50;100.00;101563.59;5052182;28;20441;-71
2022/08/23 13:43:42;;;;;;;2.17;1.33;;;;;;;27.55;100.00;101573.75;5048932;28;20434;-70
2022/08/23 13:46:32;;;;;;;2.70;1.53;;;;;;;27.92;100.00;101561.97;5048649;28;20436;-70
2022/08/23 13:49:02;;;;;;;1.37;1.27;;;;;;;28.08;100.00;101563.34;5062679;28;20444;-70
2022/08/23 13:51:38;;;;;;;1.93;1.57;;;;;;;28.00;100.00;101544.72;5062106;28;20454;-70
2022/08/23 13:54:06;;;;;;;1.50;1.27;;;;;;;27.94;100.00;101545.91;5060801;28;20437;-70
2022/08/23 13:56:54;;;;;;;2.77;1.43;;;;;;;27.64;100.00;101525.13;5067425;28;20467;-69
2022/08/23 13:59:38;;;;;;;1.93;1.60;;;;;;;28.00;100.00;101561.25;5059890;28;20446;-70
2022/08/23 14:02:10;;;;;;;2.00;1.40;;;;;;;27.92;100.00;101554.50;5043349;28;20485;-70
2022/08/23 14:04:35;;;;;;;3.87;1.57;;;;;;;28.22;100.00;101557.91;5053318;28;20562;-70
2022/08/23 14:07:01;;;;;;;1.90;1.60;;;;;;;28.30;100.00;101540.66;5061257;28;20818;-69
2022/08/23 14:09:26;;;;;;;5.77;1.67;;;;;;;28.48;100.00;101550.03;5042929;28;20201;-70
2022/08/23 14:11:56;;;;;;;4.73;1.53;;;;;;;28.40;100.00;101545.19;5060514;28;20739;-70
2022/08/23 14:14:22;;;;;;;2.80;1.20;;;;;;;28.45;100.00;101544.31;5053815;28;20658;-69
2022/08/23 14:16:48;;;;;;;2.30;1.43;;;;;;;28.36;100.00;101541.41;5058200;28;20555;-69
2022/08/23 14:19:13;;;;;;;2.53;1.50;;;;;;;28.28;100.00;101512.56;5056178;28;21447;-69
2022/08/23 14:21:38;;;;;;;2.70;1.87;;;;;;;28.65;100.00;101538.44;5058758;28;20217;-71
2022/08/23 14:24:04;;;;;;;2.30;1.40;;;;;;;28.28;100.00;101542.91;5059940;28;20243;-70
2022/08/23 14:26:30;;;;;;;4.43;1.33;;;;;;;28.07;100.00;101520.34;5064332;28;20190;-71
2022/08/23 14:28:55;;;;;;;2.90;1.80;;;;;;;27.87;100.00;101501.38;5067378;28;20204;-70
2022/08/23 14:31:21;;;;;;;2.13;1.20;;;;;;;28.47;100.00;101547.59;5062429;28;20194;-70
2022/08/23 14:33:47;;;;;;;3.30;1.63;;;;;;;28.64;100.00;101538.72;5058929;28;20187;-70
2022/08/23 14:36:13;;;;;;;2.37;1.37;;;;;;;28.78;100.00;101548.66;5059640;28;20682;-70
2022/08/23 14:38:39;;;;;;;2.73;1.73;;;;;;;28.96;100.00;101552.47;5057716;28;20453;-73
2022/08/23 14:41:11;;;;;;;2.20;1.50;;;;;;;28.96;100.00;101546.97;5056816;28;20543;-69
2022/08/23 14:43:37;;;;;;;2.50;1.33;;;;;;;28.87;100.00;101520.34;5058829;28;20438;-71
2022/08/23 14:46:03;;;;;;;4.00;1.80;;;;;;;28.99;100.00;101546.34;5057331;28;20444;-71
2022/08/23 14:48:29;;;;;;;1.83;1.30;;;;;;;29.22;100.00;101552.81;5064208;28;20183;-71
2022/08/23 14:50:55;;;;;;;2.90;1.50;;;;;;;29.04;100.00;101495.72;5061923;28;20448;-71
2022/08/23 14:53:25;;;;;;;1.80;1.40;;;;;;;29.11;100.00;101520.19;5062359;28;20468;-70
2022/08/23 14:55:52;;;;;;;2.97;1.10;;;;;;;29.12;100.00;101514.34;5063088;28;20206;-70
2022/08/23 14:58:18;;;;;;;2.50;1.73;;;;;;;29.16;100.00;101536.63;5057543;28;20433;-70
2022/08/23 15:00:44;;;;;;;1.20;1.00;;;;;;;29.03;100.00;101538.28;5053539;28;20437;-70
2022/08/23 15:03:16;;;;;;;1.40;1.20;;;;;;;28.94;100.00;101537.34;5053923;28;20487;-71
2022/08/23 15:05:41;;;;;;;2.37;1.70;;;;;;;28.89;100.00;101534.66;5053887;28;20441;-71
2022/08/23 15:08:07;;;;;;;2.33;1.60;;;;;;;28.57;100.00;101497.72;5061218;28;20937;-71
2022/08/23 15:10:32;;;;;;;3.37;1.50;;;;;;;28.52;100.00;101517.13;5057992;28;20186;-72
2022/08/23 15:12:58;;;;;;;3.40;1.50;;;;;;;28.71;100.00;101528.13;5044814;28;20535;-71
2022/08/23 15:15:23;;;;;;;3.60;1.37;;;;;;;28.90;100.00;101530.78;5057300;28;20187;-71
2022/08/23 15:17:55;;;;;;;2.37;1.43;;;;;;;28.84;100.00;101517.09;5057316;28;20191;-73
2022/08/23 15:20:28;;;;;;;1.63;1.10;;;;;;;29.04;100.00;101537.16;5065070;28;20190;-71
2022/08/23 15:22:53;;;;;;;3.40;1.73;;;;;;;28.95;100.00;101530.69;5059040;28;20476;-73
2022/08/23 15:25:19;;;;;;;1.70;1.30;;;;;;;28.35;100.00;101517.66;5059658;28;20870;-73
2022/08/23 15:27:45;;;;;;;1.77;1.40;;;;;;;28.08;100.00;101515.66;5063228;28;20179;-74
2022/08/23 15:30:13;;;;;;;4.30;1.70;;;;;;;27.78;100.00;101503.97;5060287;28;20598;-74
2022/08/23 15:32:39;;;;;;;1.47;1.23;;;;;;;27.72;100.00;101503.22;5058332;28;20442;-73
2022/08/23 15:35:05;;;;;;;2.33;1.40;;;;;;;27.99;100.00;101540.34;5072999;28;20429;-72
2022/08/23 15:37:32;;;;;;;1.20;1.10;;;;;;;27.77;100.00;101540.91;5063483;28;20461;-72
2022/08/23 15:39:58;;;;;;;1.73;1.07;;;;;;;27.54;100.00;101509.56;5068070;28;20791;-72
2022/08/23 15:42:23;;;;;;;1.70;1.20;;;;;;;27.43;100.00;101500.59;5051428;28;20503;-71
2022/08/23 15:44:48;;;;;;;2.23;1.40;;;;;;;27.68;100.00;101540.75;5061916;28;20244;-71
2022/08/23 15:47:23;;;;;;;1.83;1.40;;;;;;;27.61;100.00;101532.03;5053654;28;20194;-70
2022/08/23 15:49:48;;;;;;;1.60;1.20;;;;;;;27.53;100.00;101531.88;5058477;28;20217;-71
2022/08/23 15:52:14;;;;;;;1.57;1.33;;;;;;;27.33;100.00;101521.94;5064518;28;20488;-71
2022/08/23 15:54:40;;;;;;;3.50;1.37;;;;;;;27.38;100.00;101519.94;5065573;28;20175;-71
2022/08/23 15:57:06;;;;;;;1.93;1.30;;;;;;;27.23;100.00;101496.19;5055261;28;20218;-72
2022/08/23 15:59:35;;;;;;;1.73;1.47;;;;;;;27.27;100.00;101508.25;5061693;28;20650;-71
2022/08/23 16:02:00;;;;;;;1.90;1.10;;;;;;;27.37;100.00;101525.78;5057886;28;20206;-71
2022/08/23 16:04:26;;;;;;;2.10;1.30;;;;;;;27.45;100.00;101536.97;5065825;28;20439;-71
2022/08/23 16:06:51;;;;;;;1.90;1.70;;;;;;;27.44;100.00;101535.28;5063116;28;20729;-72
2022/08/23 16:09:21;;;;;;;2.00;1.50;;;;;;;27.38;100.00;101533.72;5069524;28;20324;-71
2022/08/23 16:11:47;;;;;;;2.20;1.43;;;;;;;27.01;100.00;101490.38;5054589;28;20202;-72
2022/08/23 16:14:12;;;;;;;1.63;1.40;;;;;;;26.95;100.00;101506.13;5054544;28;20447;-71
2022/08/23 16:16:39;;;;;;;2.13;1.40;;;;;;;26.82;100.00;101509.59;5060511;28;20813;-71
2022/08/23 16:19:05;;;;;;;1.50;1.30;;;;;;;26.73;100.00;101522.34;5054747;28;20198;-71
2022/08/23 16:21:32;;;;;;;2.60;1.40;;;;;;;26.44;100.00;101489.31;5056629;28;20454;-72
2022/08/23 16:23:58;;;;;;;1.50;1.40;;;;;;;26.26;100.00;101458.66;5056494;28;20611;-72
2022/08/23 16:26:27;;;;;;;2.90;1.57;;;;;;;26.63;100.00;101525.22;5063163;28;20940;-72
2022/08/23 16:28:55;;;;;;;4.07;2.17;;;;;;;26.52;100.00;101521.72;5057367;28;20453;-71
2022/08/23 16:31:21;;;;;;;5.77;2.90;;;;;;;26.47;100.00;101527.22;5053599;28;20472;-71
2022/08/23 16:33:47;;;;;;;4.67;2.83;;;;;;;26.22;100.00;101498.88;5061801;28;20437;-71
2022/08/23 16:36:16;;;;;;;9.23;2.50;;;;;;;26.40;100.00;101522.06;5055192;28;20471;-71
2022/08/23 16:38:42;;;;;;;2.63;1.60;;;;;;;26.54;100.00;101519.50;5047162;28;20187;-71
2022/08/23 16:41:08;;;;;;;3.40;2.13;;;;;;;26.38;100.00;101499.53;5051015;28;20538;-70
2022/08/23 16:43:33;;;;;;;3.07;2.07;;;;;;;26.39;100.00;101523.19;5059983;28;20433;-70
2022/08/23 16:45:58;;;;;;;3.40;2.00;;;;;;;26.12;100.00;101513.53;5071610;28;20179;-71
2022/08/23 16:48:24;;;;;;;3.70;1.63;;;;;;;26.06;100.00;101522.09;5067307;28;20197;-71
2022/08/23 16:50:49;;;;;;;2.20;1.53;;;;;;;25.75;100.00;101502.19;5071046;28;20188;-70
2022/08/23 16:53:15;;;;;;;3.57;1.40;;;;;;;25.44;100.00;101474.94;5072317;28;20244;-70
2022/08/23 16:55:41;;;;;;;2.20;1.50;;;;;;;25.72;100.00;101539.34;5062075;28;20301;-71
2022/08/23 16:58:07;;;;;;;1.70;1.50;;;;;;;25.68;100.00;101530.00;5074062;28;20193;-70
2022/08/23 17:00:33;;;;;;;1.77;1.30;;;;;;;25.58;100.00;101538.31;5077997;28;20186;-71
2022/08/23 17:03:00;;;;;;;4.73;1.77;;;;;;;25.57;100.00;101544.91;5062594;28;20585;-71
2022/08/23 17:05:25;;;;;;;4.03;1.70;;;;;;;25.25;100.00;101503.06;5062505;28;20551;-70
2022/08/23 17:07:52;;;;;;;3.73;2.20;;;;;;;25.63;100.00;101539.13;5064070;28;20443;-70
2022/08/23 17:10:20;;;;;;;5.90;1.63;;;;;;;25.52;100.00;101536.69;5066727;28;20665;-70
2022/08/23 17:12:53;;;;;;;1.50;1.33;;;;;;;25.43;100.00;101528.22;5063188;28;20465;-69
2022/08/23 17:15:23;;;;;;;2.60;1.77;;;;;;;25.48;100.00;101536.41;5059199;28;20912;-71
2022/08/23 17:17:50;;;;;;;3.37;1.87;;;;;;;25.35;100.00;101542.53;5053265;28;21136;-70
2022/08/23 17:20:18;;;;;;;2.50;1.90;;;;;;;25.41;100.00;101549.66;5064385;28;20833;-73
2022/08/23 17:22:44;;;;;;;2.50;1.60;;;;;;;25.21;100.00;101506.63;5068520;28;20849;-72
2022/08/23 17:25:10;;;;;;;2.50;1.90;;;;;;;25.21;100.00;101499.22;5069892;28;21024;-72
2022/08/23 17:27:39;;;;;;;2.40;1.80;;;;;;;25.30;100.00;101532.38;5067394;28;20426;-73
2022/08/23 17:30:07;;;;;;;3.97;1.90;;;;;;;25.38;100.00;101541.97;5063781;28;20441;-72
2022/08/23 17:32:33;;;;;;;2.50;1.63;;;;;;;25.38;100.00;101542.78;5067426;28;21109;-73
2022/08/23 17:34:59;;;;;;;2.20;1.63;;;;;;;25.35;100.00;101553.53;5067982;28;20469;-72
2022/08/23 17:37:25;;;;;;;3.10;2.00;;;;;;;25.38;100.00;101541.97;5069882;28;20234;-73
2022/08/23 17:39:51;;;;;;;2.63;1.70;;;;;;;25.38;100.00;101553.78;5070761;28;20194;-72
2022/08/23 17:42:16;;;;;;;2.33;2.13;;;;;;;25.43;100.00;101556.50;5069406;28;20448;-73
2022/08/23 17:44:42;;;;;;;5.77;3.00;;;;;;;25.46;100.00;101555.94;5073826;28;20233;-72
2022/08/23 17:47:14;;;;;;;3.10;2.53;;;;;;;25.38;100.00;101553.78;5074212;28;20166;-72
2022/08/23 17:49:40;;;;;;;3.43;2.50;;;;;;;25.21;100.00;101562.34;5071976;28;20187;-72
2022/08/23 17:52:06;;;;;;;3.10;2.20;;;;;;;24.85;100.00;101541.56;5073375;28;20445;-72
2022/08/23 17:54:31;;;;;;;3.93;3.20;;;;;;;24.83;100.00;101571.22;5075154;28;20423;-72
2022/08/23 17:56:57;;;;;;;2.30;2.10;;;;;;;24.69;100.00;101573.69;5070907;28;20229;-72
2022/08/23 17:59:22;;;;;;;5.93;2.50;;;;;;;24.32;100.00;101507.03;5070158;28;20685;-71
2022/08/23 18:01:47;;;;;;;4.17;2.37;;;;;;;24.40;100.00;101546.78;5065961;28;20202;-71
2022/08/23 18:04:13;;;;;;;4.07;2.97;;;;;;;24.51;100.00;101559.44;5060956;28;20217;-71
2022/08/23 18:06:39;;;;;;;3.27;2.47;;;;;;;24.60;100.00;101567.94;5067112;28;20232;-70
2022/08/23 18:09:06;;;;;;;2.77;1.80;;;;;;;24.65;100.00;101589.88;5061199;28;20755;-70
2022/08/23 18:11:32;;;;;;;2.27;2.07;;;;;;;24.46;100.00;101551.22;5061385;28;20236;-70
2022/08/23 18:13:58;;;;;;;6.70;2.33;;;;;;;24.28;100.00;101560.78;5066381;28;20471;-70
2022/08/23 18:16:28;;;;;;;3.80;2.53;;;;;;;24.34;100.00;101591.75;5072018;28;20454;-72
2022/08/23 18:18:56;;;;;;;2.47;2.10;;;;;;;24.37;100.00;101588.47;5071436;28;20240;-72
2022/08/23 18:21:23;;;;;;;2.40;2.20;;;;;;;24.33;100.00;101590.13;5073285;28;20484;-72
2022/08/23 18:23:49;;;;;;;4.00;2.00;;;;;;;24.02;100.00;101590.06;5070736;28;20526;-72
2022/08/23 18:28:59;;;;;;;4.20;2.27;;;;;;;24.00;100.00;101603.19;5066818;28;20948;-72
2022/08/23 18:31:26;;;;;;;3.70;2.23;;;;;;;23.96;100.00;101604.03;5049091;22;20503;-76
2022/08/23 18:33:52;;;;;;;4.60;2.53;;;;;;;23.81;100.00;101615.75;5032964;28;20438;-76
2022/08/23 18:36:18;;;;;;;3.63;2.50;;;;;;;22.49;100.00;101438.84;5030874;28;21501;-76
2022/08/23 18:38:43;;;;;;;2.43;1.90;;;;;;;22.50;100.00;101446.75;5017181;28;20453;-76
2022/08/23 18:41:11;;;;;;;3.77;1.70;;;;;;;22.58;100.00;101472.78;5035969;28;20208;-75
2022/08/23 18:43:38;;;;;;;3.57;2.20;;;;;;;23.42;100.00;101611.44;5034131;28;20200;-77
2022/08/23 18:46:04;;;;;;;2.50;2.30;;;;;;;23.44;100.00;101628.44;5031884;28;20945;-77
2022/08/23 18:48:30;;;;;;;3.00;2.57;;;;;;;23.36;100.00;101631.69;5032832;28;20450;-74
2022/08/23 18:50:56;;;;;;;5.27;2.60;;;;;;;21.58;100.00;101334.09;5031615;28;20833;-73
2022/08/23 18:53:21;;;;;;;4.67;2.60;;;;;;;22.00;100.00;101441.75;5038385;28;20650;-76
2022/08/23 18:55:48;;;;;;;4.70;2.47;;;;;;;22.61;100.00;101551.56;5037913;28;20473;-77
2022/08/23 18:58:14;;;;;;;2.80;2.20;;;;;;;21.59;100.00;101420.34;5038096;28;20187;-75
2022/08/23 19:00:40;;;;;;;3.07;2.77;;;;;;;21.32;100.00;101379.41;5054098;28;20919;-75
2022/08/23 19:03:06;;;;;;;6.83;4.13;;;;;;;21.70;100.00;101461.38;5032928;28;20530;-75
2022/08/23 19:05:32;;;;;;;4.37;3.97;;;;;;;21.40;100.00;101383.59;5038496;28;20180;-75
2022/08/23 19:07:57;;;;;;;6.77;3.73;;;;;;;21.24;100.00;101358.03;5042834;28;20670;-75
2022/08/23 19:10:23;;;;;;;5.70;3.63;;;;;;;22.89;100.00;101637.09;5035821;28;21375;-76
2022/08/23 19:12:49;;;;;;;4.10;2.93;;;;;;;21.56;100.00;101472.72;5039726;28;20314;-73
2022/08/23 19:15:16;;;;;;;3.10;2.63;;;;;;;21.22;100.00;101401.09;5052782;28;20418;-75
2022/08/23 19:17:42;;;;;;;2.43;2.23;;;;;;;21.29;100.00;101460.91;5038357;28;20203;-76
2022/08/23 19:20:08;;;;;;;2.87;2.30;;;;;;;21.11;100.00;101443.00;5036679;28;20460;-74
2022/08/23 19:22:34;;;;;;;4.10;2.50;;;;;;;21.49;100.00;101507.56;5036395;28;20192;-76
2022/08/23 19:24:59;;;;;;;2.50;2.20;;;;;;;21.71;100.00;101514.94;5040696;28;20479;-75
2022/08/23 19:27:25;;;;;;;2.57;2.37;;;;;;;21.12;100.00;101441.94;5020342;28;20188;-76
2022/08/23 19:29:50;;;;;;;2.50;2.30;;;;;;;21.03;100.00;101441.56;5038607;28;20188;-73
2022/08/23 19:32:16;;;;;;;4.27;3.00;;;;;;;20.45;100.00;101369.31;5028798;28;20283;-75
2022/08/23 19:34:41;;;;;;;3.93;2.70;;;;;;;20.80;100.00;101414.50;5029315;28;20192;-75
2022/08/23 19:37:07;;;;;;;5.23;2.70;;;;;;;20.77;100.00;101424.88;5029253;28;20212;-75
2022/08/23 19:39:34;;;;;;;3.10;2.80;;;;;;;20.72;100.00;101405.72;5029384;28;20207;-76
2022/08/23 19:42:01;;;;;;;3.67;2.93;;;;;;;22.37;100.00;101660.44;5013691;28;20504;-76
2022/08/23 19:44:27;;;;;;;6.53;3.40;;;;;;;21.27;100.00;101504.84;5021625;28;20806;-76
2022/08/23 19:46:56;;;;;;;7.27;4.57;;;;;;;21.15;100.00;101507.69;5023506;28;20985;-76
2022/08/23 19:49:22;;;;;;;14.57;4.80;;;;;;;22.44;100.00;101696.56;5024771;28;20477;-76
2022/08/23 19:51:47;;;;;;;5.97;4.23;;;;;;;22.19;100.00;101660.75;5027465;28;20491;-76
2022/08/23 19:54:13;;;;;;;5.17;3.67;;;;;;;21.25;100.00;101522.53;5033580;28;20662;-76
2022/08/23 19:56:42;;;;;;;4.07;3.10;;;;;;;20.29;100.00;101357.41;5018599;28;20201;-76
2022/08/23 19:59:12;;;;;;;3.60;3.00;;;;;;;22.21;100.00;101670.34;5024106;28;20226;-75
2022/08/23 20:01:39;;;;;;;5.50;3.27;;;;;;;20.56;100.00;101460.25;5026114;28;20470;-77
2022/08/23 20:04:05;;;;;;;3.60;3.13;;;;;;;21.47;100.00;101579.91;5012989;28;20908;-76
2022/08/23 20:06:30;;;;;;;4.53;3.20;;;;;;;21.04;100.00;101554.19;5031311;28;20462;-77
2022/08/23 20:08:57;;;;;;;5.00;3.20;;;;;;;20.88;100.00;101479.50;5029893;28;20922;-75
2022/08/23 20:11:22;;;;;;;2.83;2.63;;;;;;;20.66;100.00;101463.13;5029598;28;20691;-76
2022/08/23 20:13:49;;;;;;;4.53;3.23;;;;;;;20.96;100.00;101555.44;5032851;28;20446;-75
2022/08/23 20:16:16;;;;;;;5.33;3.47;;;;;;;20.12;100.00;101419.25;5004347;28;20239;-75
2022/08/23 20:18:42;;;;;;;4.53;3.20;;;;;;;20.63;100.00;101521.69;5018342;28;20478;-76
2022/08/23 20:21:09;;;;;;;5.10;4.10;;;;;;;21.71;100.00;101709.59;5034204;28;20490;-75
2022/08/23 20:26:18;;;;;;;6.47;3.70;;;;;;;21.01;100.00;101571.88;5031504;28;20449;-75
2022/08/23 20:28:46;;;;;;;4.73;3.33;;;;;;;20.56;100.00;101512.84;5033292;28;20929;-75
2022/08/23 20:31:21;;;;;;;3.73;2.80;;;;;;;20.19;100.00;101482.53;5019238;28;20817;-75
2022/08/23 20:33:47;;;;;;;8.40;4.10;;;;;;;21.80;100.00;101743.56;5022790;28;20499;-75
2022/08/23 20:36:13;;;;;;;5.80;4.80;;;;;;;21.84;100.00;101743.88;5036181;28;20942;-75
2022/08/23 20:38:38;;;;;;;7.87;4.67;;;;;;;19.85;100.00;101420.72;5017542;28;20955;-74
2022/08/23 20:41:04;;;;;;;4.93;4.43;;;;;;;20.48;100.00;101551.38;5032525;28;20481;-75
2022/08/23 20:43:30;;;;;;;6.40;4.57;;;;;;;20.25;100.00;101536.00;5035224;28;20566;-75
2022/08/23 20:45:55;;;;;;;6.03;5.07;;;;;;;21.51;100.00;101734.69;5034315;28;20191;-75
2022/08/23 20:48:22;;;;;;;5.50;4.27;;;;;;;21.08;100.00;101665.25;5033232;28;20196;-74
2022/08/23 20:50:47;;;;;;;5.23;3.90;;;;;;;21.02;100.00;101638.97;5036072;28;20326;-74
2022/08/23 20:53:13;;;;;;;3.10;2.77;;;;;;;19.91;100.00;101469.81;5032824;28;20550;-74
2022/08/23 20:55:38;;;;;;;3.60;3.00;;;;;;;20.66;100.00;101597.53;5020154;28;20222;-74
2022/08/23 20:58:05;;;;;;;3.03;2.70;;;;;;;20.48;100.00;101559.56;5033529;28;20746;-76
2022/08/23 21:00:30;;;;;;;7.50;2.97;;;;;;;21.14;100.00;101647.06;5033581;28;20212;-75
2022/08/23 21:02:56;;;;;;;3.10;2.20;;;;;;;20.50;100.00;101565.59;5030547;28;20467;-76
2022/08/23 21:05:21;;;;;;;3.20;2.77;;;;;;;20.28;100.00;101527.38;5029749;28;20209;-76
2022/08/23 21:07:47;;;;;;;3.80;3.10;;;;;;;20.73;100.00;101589.97;5036970;28;20195;-76
2022/08/23 21:10:12;;;;;;;3.17;2.90;;;;;;;20.22;100.00;101503.81;5033942;28;20203;-76
2022/08/23 21:12:37;;;;;;;3.10;2.70;;;;;;;20.70;100.00;101571.41;5032400;28;20181;-76
2022/08/23 21:15:05;;;;;;;5.03;2.80;;;;;;;21.90;100.00;101753.84;5031136;28;20704;-76
2022/08/23 21:17:30;;;;;;;5.10;3.30;;;;;;;21.52;100.00;101684.47;5027746;28;20208;-75
2022/08/23 21:19:56;;;;;;;3.43;2.50;;;;;;;20.14;100.00;101472.41;5030619;28;21124;-75
2022/08/23 21:22:21;;;;;;;3.30;2.87;;;;;;;22.03;100.00;101752.63;5025779;28;20214;-76
2022/08/23 21:24:47;;;;;;;3.50;2.60;;;;;;;20.62;100.00;101520.03;5029736;28;20183;-76
2022/08/23 21:27:12;;;;;;;4.13;3.00;;;;;;;20.71;100.00;101542.25;5029139;28;20587;-76
2022/08/23 21:29:37;;;;;;;4.43;3.23;;;;;;;21.13;100.00;101601.78;5030582;28;20266;-75
2022/08/23 21:32:03;;;;;;;4.40;3.40;;;;;;;21.31;100.00;101597.94;5041207;28;20204;-76
2022/08/23 21:34:29;;;;;;;3.47;2.83;;;;;;;20.16;100.00;101431.28;5026407;28;20275;-76
2022/08/23 21:36:54;;;;;;;3.83;3.10;;;;;;;20.81;100.00;101547.03;5024897;28;20622;-76